Time;durP1;ratioP1;P1;durP2;ratioP2;P2;SDS_P1;SDS_P2;PMS_P1;PMS_P2;Temp;Humidity;BMP_temperature;BMP_pressure;BME280_temperature;BME280_humidity;BME280_pressure;Samples;Min_cycle;Max_cycle;Signal;HPM_P1;HPM_P2
2022/06/24 00:00:13;;;;;;;;;;;25.70;56.50;;;;;;5033733;28;20034;-54
2022/06/24 00:02:58;;;;;;;;;;;25.70;56.50;;;;;;5029592;28;20259;-54
2022/06/24 00:05:42;;;;;;;;;;;25.70;56.70;;;;;;5028632;28;20020;-50
2022/06/24 00:08:26;;;;;;;;;;;25.60;56.80;;;;;;5015700;28;19978;-50
2022/06/24 00:11:13;;;;;;;;;;;25.50;57.10;;;;;;5018045;28;19957;-50
2022/06/24 00:14:02;;;;;;;;;;;25.30;57.40;;;;;;5034529;28;19920;-51
2022/06/24 00:16:53;;;;;;;;;;;25.30;57.50;;;;;;5034132;28;19956;-57
2022/06/24 00:19:57;;;;;;;;;;;25.30;57.70;;;;;;5035853;28;19928;-51
2022/06/24 00:22:42;;;;;;;;;;;25.20;57.80;;;;;;5035093;28;19912;-49
2022/06/24 00:25:27;;;;;;;;;;;25.20;57.80;;;;;;5035469;28;19936;-54
2022/06/24 00:28:11;;;;;;;;;;;25.10;57.90;;;;;;5035998;28;19975;-52
2022/06/24 00:30:56;;;;;;;;;;;25.10;57.90;;;;;;5038109;28;19975;-55
2022/06/24 00:33:45;;;;;;;;;;;25.10;58.10;;;;;;5038038;28;20002;-53
2022/06/24 00:36:30;;;;;;;;;;;25.10;58.10;;;;;;5035994;28;20395;-52
2022/06/24 00:39:14;;;;;;;;;;;25.10;58.00;;;;;;5034871;28;19924;-53
2022/06/24 00:41:59;;;;;;;;;;;25.10;58.20;;;;;;5035194;28;19919;-53
2022/06/24 00:44:50;;;;;;;;;;;25.20;58.40;;;;;;5031353;28;19928;-50
2022/06/24 00:47:35;;;;;;;;;;;25.20;58.40;;;;;;5033431;28;19928;-52
2022/06/24 00:50:24;;;;;;;;;;;25.20;58.30;;;;;;5033803;28;20339;-48
2022/06/24 00:53:08;;;;;;;;;;;25.20;58.60;;;;;;5033555;28;19994;-47
2022/06/24 00:55:53;;;;;;;;;;;25.10;58.60;;;;;;5032516;28;19920;-54
2022/06/24 00:58:37;;;;;;;;;;;25.10;58.50;;;;;;5033170;28;19916;-50
2022/06/24 01:01:29;;;;;;;;;;;25.10;58.50;;;;;;5033802;28;19967;-50
2022/06/24 01:04:13;;;;;;;;;;;25.00;58.40;;;;;;5031847;28;19992;-50
2022/06/24 01:06:57;;;;;;;;;;;25.00;58.80;;;;;;5029808;28;19920;-51
2022/06/24 01:09:41;;;;;;;;;;;24.90;58.90;;;;;;5033177;28;19912;-48
2022/06/24 01:12:26;;;;;;;;;;;24.70;59.20;;;;;;5028687;28;19920;-50
2022/06/24 01:15:10;;;;;;;;;;;24.70;59.40;;;;;;5028341;28;20327;-52
2022/06/24 01:17:54;;;;;;;;;;;24.60;59.50;;;;;;5025377;28;20023;-50
2022/06/24 01:20:39;;;;;;;;;;;24.50;59.60;;;;;;5032765;28;20339;-49
2022/06/24 01:23:24;;;;;;;;;;;24.50;59.80;;;;;;5032287;28;20050;-50
2022/06/24 01:26:08;;;;;;;;;;;24.50;59.50;;;;;;5034196;28;20323;-53
2022/06/24 01:28:52;;;;;;;;;;;24.40;59.90;;;;;;5033682;28;20386;-52
2022/06/24 01:31:38;;;;;;;;;;;24.30;59.90;;;;;;5034037;28;19915;-50
2022/06/24 01:34:23;;;;;;;;;;;24.30;60.20;;;;;;5049542;28;19930;-54
2022/06/24 01:37:07;;;;;;;;;;;24.40;60.40;;;;;;5053899;28;19915;-52
2022/06/24 01:39:51;;;;;;;;;;;24.40;60.80;;;;;;5016206;28;20656;-51
2022/06/24 01:42:36;;;;;;;;;;;24.30;62.20;;;;;;5029719;28;19952;-50
2022/06/24 01:45:20;;;;;;;;;;;24.20;63.30;;;;;;5030523;28;20012;-52
2022/06/24 01:48:04;;;;;;;;;;;24.00;64.40;;;;;;5028293;28;20356;-52
2022/06/24 01:50:48;;;;;;;;;;;23.90;65.10;;;;;;5031129;28;19966;-49
2022/06/24 01:53:33;;;;;;;;;;;23.90;65.50;;;;;;5020105;28;19998;-49
2022/06/24 01:56:17;;;;;;;;;;;23.80;65.40;;;;;;5032448;28;19915;-49
2022/06/24 01:59:02;;;;;;;;;;;23.70;65.60;;;;;;5034048;28;19916;-48
2022/06/24 02:01:46;;;;;;;;;;;23.60;65.50;;;;;;5033215;28;19944;-50
2022/06/24 02:04:30;;;;;;;;;;;23.60;65.60;;;;;;5013119;28;19912;-52
2022/06/24 02:07:15;;;;;;;;;;;23.60;65.90;;;;;;5024696;28;20434;-53
2022/06/24 02:16:06;;;;;;;;;;;23.60;66.80;;;;;;5032604;28;19920;-52
2022/06/24 02:18:50;;;;;;;;;;;23.60;67.10;;;;;;5026290;28;19916;-53
2022/06/24 02:21:35;;;;;;;;;;;23.60;66.90;;;;;;5027067;28;19920;-50
2022/06/24 02:24:19;;;;;;;;;;;23.50;67.20;;;;;;5016897;28;19951;-51
2022/06/24 02:27:03;;;;;;;;;;;23.40;67.50;;;;;;5032801;28;19924;-49
2022/06/24 02:29:47;;;;;;;;;;;23.40;68.40;;;;;;5033102;28;20023;-52
2022/06/24 02:32:32;;;;;;;;;;;23.30;68.30;;;;;;5034114;28;20010;-52
2022/06/24 02:35:16;;;;;;;;;;;23.30;68.50;;;;;;5037170;28;19916;-52
2022/06/24 02:38:00;;;;;;;;;;;23.30;68.80;;;;;;5038001;28;20287;-52
2022/06/24 02:40:48;;;;;;;;;;;23.20;68.30;;;;;;5037035;28;20486;-51
2022/06/24 02:43:33;;;;;;;;;;;23.10;67.60;;;;;;5036212;28;19959;-50
2022/06/24 02:46:17;;;;;;;;;;;23.10;67.30;;;;;;5036081;28;19924;-48
2022/06/24 02:49:01;;;;;;;;;;;22.90;66.30;;;;;;5037478;28;19959;-50
2022/06/24 02:51:45;;;;;;;;;;;22.90;66.10;;;;;;5037180;28;19960;-50
2022/06/24 02:54:29;;;;;;;;;;;23.00;65.60;;;;;;5036714;28;20093;-48
2022/06/24 02:57:14;;;;;;;;;;;23.10;65.10;;;;;;5036293;28;20395;-50
2022/06/24 02:59:58;;;;;;;;;;;23.10;64.50;;;;;;5036976;28;19920;-51
2022/06/24 03:02:42;;;;;;;;;;;23.10;64.40;;;;;;5036089;28;20371;-49
2022/06/24 03:05:27;;;;;;;;;;;23.20;64.20;;;;;;5035717;28;20368;-50
2022/06/24 03:08:13;;;;;;;;;;;23.20;64.00;;;;;;5035581;28;19924;-53
2022/06/24 03:10:58;;;;;;;;;;;23.20;63.90;;;;;;5035623;28;19955;-48
2022/06/24 03:13:42;;;;;;;;;;;23.20;63.90;;;;;;5035442;28;20279;-55
2022/06/24 03:16:26;;;;;;;;;;;23.20;63.80;;;;;;5035543;28;19921;-52
2022/06/24 03:19:10;;;;;;;;;;;23.20;63.70;;;;;;5036181;28;19916;-53
2022/06/24 03:21:54;;;;;;;;;;;23.20;63.80;;;;;;5036208;28;20374;-52
2022/06/24 03:24:38;;;;;;;;;;;23.20;63.80;;;;;;5036471;28;20445;-50
2022/06/24 03:27:23;;;;;;;;;;;23.20;63.60;;;;;;5035859;28;19959;-50
2022/06/24 03:30:08;;;;;;;;;;;23.10;63.60;;;;;;5036230;28;19932;-50
2022/06/24 03:32:52;;;;;;;;;;;23.00;63.70;;;;;;5020205;28;19967;-49
2022/06/24 03:35:36;;;;;;;;;;;23.10;63.80;;;;;;5035626;28;20383;-50
2022/06/24 03:38:20;;;;;;;;;;;23.20;63.70;;;;;;5035611;28;19923;-53
2022/06/24 03:41:04;;;;;;;;;;;23.20;63.50;;;;;;5036677;28;19924;-49
2022/06/24 03:43:48;;;;;;;;;;;23.20;63.80;;;;;;5035198;28;20003;-50
2022/06/24 03:46:33;;;;;;;;;;;23.10;63.60;;;;;;5034952;28;20426;-53
2022/06/24 03:49:19;;;;;;;;;;;23.10;63.70;;;;;;5021495;28;19967;-51
2022/06/24 03:52:03;;;;;;;;;;;23.00;63.80;;;;;;5037137;28;19920;-50
2022/06/24 03:54:48;;;;;;;;;;;23.00;63.70;;;;;;5036000;28;20008;-51
2022/06/24 03:57:32;;;;;;;;;;;23.00;63.70;;;;;;5036006;28;19919;-54
2022/06/24 04:00:16;;;;;;;;;;;23.00;64.00;;;;;;5039532;28;20442;-54
2022/06/24 04:03:01;;;;;;;;;;;23.00;63.90;;;;;;5019578;28;19920;-49
2022/06/24 04:05:45;;;;;;;;;;;23.10;64.00;;;;;;5024004;28;19924;-47
2022/06/24 04:08:29;;;;;;;;;;;23.20;63.80;;;;;;5035448;28;20304;-48
2022/06/24 04:11:14;;;;;;;;;;;23.10;63.80;;;;;;5034960;28;19999;-51
2022/06/24 04:13:59;;;;;;;;;;;23.20;63.50;;;;;;5035419;28;19916;-49
2022/06/24 04:16:43;;;;;;;;;;;23.20;63.90;;;;;;5032361;28;19916;-48
2022/06/24 04:19:27;;;;;;;;;;;23.20;63.90;;;;;;5035212;28;19963;-51
2022/06/24 04:22:11;;;;;;;;;;;23.20;64.30;;;;;;5035262;28;20394;-46
2022/06/24 04:24:56;;;;;;;;;;;23.10;64.40;;;;;;5033820;28;19931;-52
2022/06/24 04:27:40;;;;;;;;;;;23.10;64.60;;;;;;5033580;28;19912;-50
2022/06/24 04:30:25;;;;;;;;;;;23.20;64.50;;;;;;5033762;28;20323;-52
2022/06/24 04:33:09;;;;;;;;;;;23.20;64.60;;;;;;5040238;28;19959;-50
2022/06/24 04:35:54;;;;;;;;;;;23.20;64.70;;;;;;5045707;28;20323;-48
2022/06/24 04:38:38;;;;;;;;;;;23.20;64.80;;;;;;5033945;28;19963;-48
2022/06/24 04:41:22;;;;;;;;;;;23.20;64.80;;;;;;5035000;28;19919;-48
2022/06/24 04:44:06;;;;;;;;;;;23.20;65.10;;;;;;5027252;28;19967;-49
2022/06/24 04:46:51;;;;;;;;;;;23.20;65.20;;;;;;5035636;28;19920;-47
2022/06/24 04:49:35;;;;;;;;;;;23.20;65.10;;;;;;5036599;28;20204;-49
2022/06/24 04:52:19;;;;;;;;;;;23.20;65.30;;;;;;5035355;28;20292;-53
2022/06/24 04:55:04;;;;;;;;;;;23.20;65.30;;;;;;5014050;28;19967;-48
2022/06/24 04:57:48;;;;;;;;;;;23.20;65.40;;;;;;5018206;28;19916;-48
2022/06/24 05:00:32;;;;;;;;;;;23.30;65.60;;;;;;5034116;28;19931;-48
2022/06/24 05:03:16;;;;;;;;;;;23.40;65.40;;;;;;5034345;28;20398;-52
2022/06/24 05:06:01;;;;;;;;;;;23.50;65.20;;;;;;5033642;28;20387;-50
2022/06/24 05:08:47;;;;;;;;;;;23.50;65.20;;;;;;5034402;28;19916;-46
2022/06/24 05:11:31;;;;;;;;;;;23.60;65.00;;;;;;5034590;28;19916;-48
2022/06/24 05:14:16;;;;;;;;;;;23.60;65.00;;;;;;5034838;28;20490;-49
2022/06/24 05:17:01;;;;;;;;;;;23.70;65.00;;;;;;5033478;28;19966;-55
2022/06/24 05:19:45;;;;;;;;;;;23.80;64.90;;;;;;5019209;28;19928;-52
2022/06/24 05:22:29;;;;;;;;;;;23.90;64.60;;;;;;5033981;28;20418;-52
2022/06/24 05:25:14;;;;;;;;;;;24.10;64.40;;;;;;5033818;28;19971;-48
2022/06/24 05:27:58;;;;;;;;;;;24.10;64.30;;;;;;5034386;28;19915;-53
2022/06/24 05:30:42;;;;;;;;;;;24.20;64.30;;;;;;5014327;28;19920;-57
2022/06/24 05:33:26;;;;;;;;;;;24.20;64.30;;;;;;5028170;28;19916;-55
2022/06/24 05:36:14;;;;;;;;;;;24.30;64.20;;;;;;5034304;28;19915;-53
2022/06/24 05:39:00;;;;;;;;;;;24.40;64.00;;;;;;5033944;28;19970;-50
2022/06/24 05:41:44;;;;;;;;;;;24.40;64.00;;;;;;5019804;28;19960;-51
2022/06/24 05:44:28;;;;;;;;;;;24.50;64.00;;;;;;5036463;28;19915;-54
2022/06/24 05:47:13;;;;;;;;;;;24.50;63.90;;;;;;5035844;28;19958;-55
2022/06/24 05:49:57;;;;;;;;;;;24.60;63.50;;;;;;5036400;28;19920;-52
2022/06/24 05:55:44;;;;;;;;;;;24.90;63.20;;;;;;5035672;28;19931;-52
2022/06/24 05:58:29;;;;;;;;;;;24.90;63.00;;;;;;5014106;28;20072;-50
2022/06/24 06:01:13;;;;;;;;;;;24.90;63.10;;;;;;5024464;28;19948;-52
2022/06/24 06:03:58;;;;;;;;;;;25.00;63.10;;;;;;5033225;28;20321;-56
2022/06/24 06:06:42;;;;;;;;;;;25.10;62.90;;;;;;5032891;28;19923;-49
2022/06/24 06:09:26;;;;;;;;;;;25.20;62.80;;;;;;5033747;28;19978;-46
2022/06/24 06:12:10;;;;;;;;;;;25.20;62.80;;;;;;5033122;28;20435;-52
2022/06/24 06:14:55;;;;;;;;;;;25.20;62.60;;;;;;5033685;28;19964;-49
2022/06/24 06:17:39;;;;;;;;;;;25.20;62.70;;;;;;5033294;28;19963;-49
2022/06/24 06:20:23;;;;;;;;;;;25.30;62.60;;;;;;5041799;28;19915;-53
2022/06/24 06:23:07;;;;;;;;;;;25.40;62.60;;;;;;5050930;28;20271;-52
2022/06/24 06:25:51;;;;;;;;;;;25.40;62.70;;;;;;5033397;28;19978;-53
2022/06/24 06:28:36;;;;;;;;;;;25.50;62.90;;;;;;5033499;28;20355;-48
2022/06/24 06:31:21;;;;;;;;;;;25.50;62.90;;;;;;5053011;28;19955;-46
2022/06/24 06:34:04;;;;;;;;;;;25.60;62.50;;;;;;5039150;28;20299;-52
2022/06/24 06:36:49;;;;;;;;;;;25.60;62.10;;;;;;5035815;28;20280;-51
2022/06/24 06:39:33;;;;;;;;;;;25.70;61.80;;;;;;5033393;28;19975;-50
2022/06/24 06:42:17;;;;;;;;;;;25.60;61.20;;;;;;5032716;28;19919;-60
2022/06/24 06:45:02;;;;;;;;;;;25.70;61.00;;;;;;5026715;28;20407;-50
2022/06/24 06:47:46;;;;;;;;;;;25.70;60.90;;;;;;5033093;28;19927;-49
2022/06/24 06:50:31;;;;;;;;;;;25.70;61.10;;;;;;5032475;28;19920;-48
2022/06/24 06:53:15;;;;;;;;;;;25.90;61.00;;;;;;5047998;28;19916;-50
2022/06/24 06:55:59;;;;;;;;;;;25.90;60.10;;;;;;5026221;28;19915;-49
2022/06/24 06:58:43;;;;;;;;;;;25.90;59.70;;;;;;5049991;28;19958;-46
2022/06/24 07:01:27;;;;;;;;;;;26.00;59.40;;;;;;5039530;28;19935;-49
2022/06/24 07:04:11;;;;;;;;;;;26.10;59.30;;;;;;5031084;28;20275;-50
2022/06/24 07:06:56;;;;;;;;;;;26.20;59.10;;;;;;5030229;28;19976;-48
2022/06/24 07:09:40;;;;;;;;;;;26.30;58.80;;;;;;5023821;28;20402;-49
2022/06/24 07:12:25;;;;;;;;;;;26.30;58.60;;;;;;5030662;28;20327;-48
2022/06/24 07:15:14;;;;;;;;;;;26.30;58.10;;;;;;5030599;28;20135;-49
2022/06/24 07:17:58;;;;;;;;;;;26.40;58.00;;;;;;5030787;28;19939;-53
2022/06/24 07:20:43;;;;;;;;;;;26.50;57.30;;;;;;5035452;28;19959;-49
2022/06/24 07:23:27;;;;;;;;;;;26.50;56.50;;;;;;5040811;28;19925;-54
2022/06/24 07:26:11;;;;;;;;;;;26.60;56.30;;;;;;5039334;28;19963;-51
2022/06/24 07:28:56;;;;;;;;;;;26.70;56.10;;;;;;5029883;28;20036;-50
2022/06/24 07:31:40;;;;;;;;;;;26.70;55.60;;;;;;5032553;28;20334;-50
2022/06/24 07:34:26;;;;;;;;;;;26.80;55.50;;;;;;5018522;28;19912;-53
2022/06/24 07:37:10;;;;;;;;;;;26.90;56.00;;;;;;5032659;28;20370;-51
2022/06/24 07:39:55;;;;;;;;;;;26.80;56.20;;;;;;5028762;28;19980;-52
2022/06/24 07:42:39;;;;;;;;;;;27.00;56.40;;;;;;5032635;28;19947;-47
2022/06/24 07:45:23;;;;;;;;;;;27.10;56.50;;;;;;5017921;28;19923;-52
2022/06/24 07:48:08;;;;;;;;;;;27.30;56.20;;;;;;5033057;28;19915;-49
2022/06/24 07:50:52;;;;;;;;;;;27.40;55.80;;;;;;5031581;28;19932;-49
2022/06/24 07:53:36;;;;;;;;;;;27.40;55.50;;;;;;5030021;28;19975;-52
2022/06/24 07:59:28;;;;;;;;;;;27.50;55.00;;;;;;5035301;28;20382;-52
2022/06/24 08:02:12;;;;;;;;;;;27.50;55.30;;;;;;5034954;28;20276;-52
2022/06/24 08:04:56;;;;;;;;;;;27.50;55.20;;;;;;5033836;28;20004;-48
2022/06/24 08:07:43;;;;;;;;;;;27.60;55.30;;;;;;5036601;28;20002;-48
2022/06/24 08:10:27;;;;;;;;;;;27.60;55.60;;;;;;5005145;28;19920;-55
2022/06/24 08:13:11;;;;;;;;;;;27.60;55.70;;;;;;5023381;28;19962;-49
2022/06/24 08:15:56;;;;;;;;;;;27.80;55.80;;;;;;5033921;28;19967;-48
2022/06/24 08:18:40;;;;;;;;;;;27.80;55.70;;;;;;5032027;28;20348;-48
2022/06/24 08:21:24;;;;;;;;;;;27.80;56.00;;;;;;5033711;28;19919;-47
2022/06/24 08:24:09;;;;;;;;;;;27.90;56.00;;;;;;5034409;28;19975;-51
2022/06/24 08:26:53;;;;;;;;;;;27.80;55.80;;;;;;5033306;28;19928;-51
2022/06/24 08:29:37;;;;;;;;;;;28.00;56.00;;;;;;5035262;28;20004;-48
2022/06/24 08:32:22;;;;;;;;;;;27.90;56.00;;;;;;5034221;28;20449;-54
2022/06/24 08:35:06;;;;;;;;;;;27.90;56.00;;;;;;5033957;28;19929;-48
2022/06/24 08:37:50;;;;;;;;;;;28.00;55.80;;;;;;5034670;28;19955;-49
2022/06/24 08:40:34;;;;;;;;;;;28.10;56.10;;;;;;5031660;28;19916;-53
2022/06/24 08:43:21;;;;;;;;;;;28.10;56.50;;;;;;5031280;28;19975;-49
2022/06/24 08:46:05;;;;;;;;;;;28.20;56.20;;;;;;5032351;28;19919;-47
2022/06/24 08:48:49;;;;;;;;;;;28.30;56.30;;;;;;5033021;28;19966;-51
2022/06/24 08:51:34;;;;;;;;;;;28.40;56.10;;;;;;5017362;28;19912;-54
2022/06/24 08:54:26;;;;;;;;;;;28.50;56.10;;;;;;5030098;28;19920;-50
2022/06/24 08:57:11;;;;;;;;;;;28.70;56.00;;;;;;5017608;28;20367;-47
2022/06/24 08:59:55;;;;;;;;;;;28.60;56.30;;;;;;5030870;28;19940;-48
2022/06/24 09:02:40;;;;;;;;;;;28.50;56.50;;;;;;5031915;28;20395;-49
2022/06/24 09:05:25;;;;;;;;;;;28.50;56.40;;;;;;5034577;28;20324;-49
2022/06/24 09:08:11;;;;;;;;;;;28.50;57.00;;;;;;5016676;28;19916;-52
2022/06/24 09:11:06;;;;;;;;;;;28.70;56.60;;;;;;5032797;28;20463;-47
2022/06/24 09:13:55;;;;;;;;;;;28.70;56.80;;;;;;5031692;28;19951;-49
2022/06/24 09:16:39;;;;;;;;;;;28.90;56.70;;;;;;5033652;28;19935;-48
2022/06/24 09:19:24;;;;;;;;;;;29.00;56.90;;;;;;5030378;28;19920;-48
2022/06/24 09:22:09;;;;;;;;;;;29.20;57.20;;;;;;5029324;28;19968;-52
2022/06/24 09:24:53;;;;;;;;;;;28.90;57.90;;;;;;5030229;28;20004;-50
2022/06/24 09:27:47;;;;;;;;;;;28.80;57.90;;;;;;5030658;28;19915;-51
2022/06/24 09:30:36;;;;;;;;;;;29.00;58.40;;;;;;5031758;28;19956;-53
2022/06/24 09:33:20;;;;;;;;;;;28.90;58.40;;;;;;5032632;28;19918;-52
2022/06/24 09:36:06;;;;;;;;;;;28.90;58.70;;;;;;5017997;28;19989;-48
2022/06/24 09:39:02;;;;;;;;;;;28.90;57.60;;;;;;5023886;28;20060;-51
2022/06/24 09:41:47;;;;;;;;;;;28.90;58.20;;;;;;5029165;28;19951;-51
2022/06/24 09:44:43;;;;;;;;;;;28.40;62.60;;;;;;5031817;28;20347;-64
2022/06/24 09:47:27;;;;;;;;;;;27.90;65.20;;;;;;5033050;28;19980;-52
2022/06/24 09:50:12;;;;;;;;;;;27.80;66.50;;;;;;5033333;28;19919;-52
2022/06/24 09:52:56;;;;;;;;;;;27.60;67.00;;;;;;5020450;28;19912;-51
2022/06/24 09:55:40;;;;;;;;;;;27.30;67.70;;;;;;5032717;28;20047;-53
2022/06/24 09:58:25;;;;;;;;;;;27.10;68.40;;;;;;5031860;28;20058;-52
2022/06/24 10:01:09;;;;;;;;;;;26.90;68.80;;;;;;5033434;28;19964;-50
2022/06/24 10:03:53;;;;;;;;;;;26.80;70.10;;;;;;5027597;28;19916;-47
2022/06/24 10:06:38;;;;;;;;;;;26.70;71.70;;;;;;5020135;28;19944;-54
2022/06/24 10:09:24;;;;;;;;;;;26.60;72.90;;;;;;5034684;28;19967;-52
2022/06/24 10:12:09;;;;;;;;;;;26.30;73.50;;;;;;5033489;28;20311;-53
2022/06/24 10:14:55;;;;;;;;;;;26.20;73.80;;;;;;5020799;28;19924;-53
2022/06/24 10:17:39;;;;;;;;;;;25.90;74.90;;;;;;5033761;28;19917;-52
2022/06/24 10:20:23;;;;;;;;;;;25.60;76.40;;;;;;5030225;28;20333;-52
2022/06/24 10:23:07;;;;;;;;;;;25.50;77.80;;;;;;5020964;28;19919;-50
2022/06/24 10:25:52;;;;;;;;;;;25.30;79.10;;;;;;5025231;28;19924;-53
2022/06/24 10:28:56;;;;;;;;;;;25.40;78.60;;;;;;5026395;28;20012;-49
2022/06/24 10:34:29;;;;;;;;;;;25.40;80.70;;;;;;5033018;28;20398;-50
2022/06/24 10:37:13;;;;;;;;;;;25.20;83.20;;;;;;5017649;28;19912;-51
2022/06/24 10:39:58;;;;;;;;;;;25.00;85.00;;;;;;5027415;28;19929;-53
2022/06/24 10:43:02;;;;;;;;;;;24.80;87.10;;;;;;5032277;28;19956;-50
2022/06/24 10:45:46;;;;;;;;;;;24.70;87.40;;;;;;5032274;28;19967;-51
2022/06/24 10:48:43;;;;;;;;;;;24.50;88.40;;;;;;5031987;28;19956;-51
2022/06/24 10:51:28;;;;;;;;;;;24.30;90.40;;;;;;5038642;28;19929;-52
2022/06/24 10:54:13;;;;;;;;;;;24.60;90.90;;;;;;5033751;28;19955;-49
2022/06/24 10:56:59;;;;;;;;;;;25.00;89.10;;;;;;5033239;28;19955;-49
2022/06/24 10:59:43;;;;;;;;;;;25.10;89.70;;;;;;5040762;28;19995;-52
2022/06/24 11:02:27;;;;;;;;;;;24.90;91.00;;;;;;5042107;28;19920;-54
2022/06/24 11:05:15;;;;;;;;;;;25.20;91.20;;;;;;5041138;28;20380;-57
2022/06/24 11:08:00;;;;;;;;;;;25.10;90.30;;;;;;5037779;28;19916;-53
2022/06/24 11:10:47;;;;;;;;;;;25.20;89.30;;;;;;5032755;28;19916;-54
2022/06/24 11:13:31;;;;;;;;;;;25.20;88.80;;;;;;5038130;28;19968;-53
2022/06/24 11:16:16;;;;;;;;;;;25.40;88.10;;;;;;5036835;28;19932;-50
2022/06/24 11:19:00;;;;;;;;;;;25.50;88.10;;;;;;5027838;28;19963;-53
2022/06/24 11:21:45;;;;;;;;;;;25.40;89.40;;;;;;5030496;28;19999;-50
2022/06/24 11:24:30;;;;;;;;;;;25.40;90.30;;;;;;5034155;28;19924;-55
2022/06/24 11:27:14;;;;;;;;;;;25.50;90.50;;;;;;5020039;28;20016;-50
2022/06/24 11:30:00;;;;;;;;;;;25.60;90.20;;;;;;5031036;28;19912;-54
2022/06/24 11:32:51;;;;;;;;;;;25.60;90.10;;;;;;5032958;28;20263;-50
2022/06/24 11:35:36;;;;;;;;;;;25.60;89.70;;;;;;5034723;28;19999;-51
2022/06/24 11:38:22;;;;;;;;;;;25.60;89.00;;;;;;5033323;28;19921;-53
2022/06/24 11:41:06;;;;;;;;;;;25.50;90.50;;;;;;5032260;28;19920;-55
2022/06/24 11:43:50;;;;;;;;;;;25.40;91.50;;;;;;5019270;28;19916;-50
2022/06/24 11:46:35;;;;;;;;;;;25.40;92.00;;;;;;5033115;28;20005;-51
2022/06/24 11:49:21;;;;;;;;;;;25.30;92.00;;;;;;5030620;28;20020;-53
2022/06/24 11:52:06;;;;;;;;;;;25.30;92.60;;;;;;5028531;28;19920;-52
2022/06/24 11:54:50;;;;;;;;;;;25.30;92.20;;;;;;5034399;28;19971;-55
2022/06/24 11:57:34;;;;;;;;;;;25.30;91.80;;;;;;5033828;28;19967;-53
2022/06/24 12:00:18;;;;;;;;;;;25.20;92.20;;;;;;5032721;28;19920;-52
2022/06/24 12:03:12;;;;;;;;;;;25.30;91.80;;;;;;5033599;28;19916;-53
2022/06/24 12:05:56;;;;;;;;;;;25.20;91.90;;;;;;5033220;28;19959;-52
2022/06/24 12:08:41;;;;;;;;;;;25.40;91.60;;;;;;5028721;28;19941;-53
2022/06/24 12:11:24;;;;;;;;;;;25.50;91.80;;;;;;5034750;28;19975;-55
2022/06/24 12:14:10;;;;;;;;;;;25.80;90.90;;;;;;5035298;28;19912;-53
2022/06/24 12:16:57;;;;;;;;;;;26.10;90.30;;;;;;5014696;28;19955;-51
2022/06/24 12:20:04;;;;;;;;;;;26.10;89.00;;;;;;5017858;28;19913;-56
2022/06/24 12:23:07;;;;;;;;;;;26.30;88.90;;;;;;5035253;28;19958;-52
2022/06/24 12:25:52;;;;;;;;;;;26.40;88.10;;;;;;5034297;28;19920;-53
2022/06/24 12:28:36;;;;;;;;;;;26.50;87.00;;;;;;5034731;28;20442;-55
2022/06/24 12:31:20;;;;;;;;;;;26.60;86.60;;;;;;5034531;28;19920;-53
2022/06/24 12:34:04;;;;;;;;;;;26.50;87.00;;;;;;5034551;28;20017;-52
2022/06/24 12:36:54;;;;;;;;;;;26.80;86.00;;;;;;5034571;28;19924;-55
2022/06/24 12:39:40;;;;;;;;;;;27.10;83.20;;;;;;5025305;28;20439;-55
2022/06/24 12:42:24;;;;;;;;;;;27.10;83.00;;;;;;5029681;28;19967;-53
2022/06/24 12:45:08;;;;;;;;;;;27.20;82.50;;;;;;5032967;28;20291;-55
2022/06/24 12:50:57;;;;;;;;;;;28.00;81.50;;;;;;5034284;28;20599;-54
2022/06/24 12:53:45;;;;;;;;;;;28.50;80.90;;;;;;5034625;28;20394;-51
2022/06/24 12:56:32;;;;;;;;;;;29.10;80.20;;;;;;5031605;28;20047;-53
2022/06/24 12:59:17;;;;;;;;;;;29.40;78.20;;;;;;5031492;28;20518;-52
2022/06/24 13:02:07;;;;;;;;;;;29.60;76.30;;;;;;5032133;28;19916;-55
2022/06/24 13:04:51;;;;;;;;;;;29.30;76.20;;;;;;5033826;28;19951;-52
2022/06/24 13:07:37;;;;;;;;;;;29.40;76.30;;;;;;5035117;28;19963;-53
2022/06/24 13:10:21;;;;;;;;;;;29.40;74.60;;;;;;5028598;28;19919;-51
2022/06/24 13:13:06;;;;;;;;;;;29.30;75.00;;;;;;5032961;28;19951;-54
2022/06/24 13:15:53;;;;;;;;;;;29.30;73.70;;;;;;5029121;28;19930;-52
2022/06/24 13:18:37;;;;;;;;;;;28.90;73.80;;;;;;5030927;28;19916;-52
2022/06/24 13:21:22;;;;;;;;;;;28.60;74.30;;;;;;5024413;28;20022;-51
2022/06/24 13:24:06;;;;;;;;;;;28.40;74.20;;;;;;5032279;28;19958;-51
2022/06/24 13:26:50;;;;;;;;;;;28.50;74.20;;;;;;5032567;28;20006;-53
2022/06/24 13:29:34;;;;;;;;;;;28.50;73.80;;;;;;5034852;28;19967;-55
2022/06/24 13:32:19;;;;;;;;;;;28.30;74.00;;;;;;5021401;28;19912;-52
2022/06/24 13:35:03;;;;;;;;;;;28.30;74.50;;;;;;5031724;28;19923;-56
2022/06/24 13:37:47;;;;;;;;;;;28.40;73.80;;;;;;5031006;28;19982;-53
2022/06/24 13:40:31;;;;;;;;;;;28.50;73.40;;;;;;5030222;28;19972;-54
2022/06/24 13:43:18;;;;;;;;;;;28.70;73.60;;;;;;5031466;28;19916;-57
2022/06/24 13:46:02;;;;;;;;;;;28.90;73.00;;;;;;5030621;28;19920;-57
2022/06/24 13:48:46;;;;;;;;;;;29.00;73.50;;;;;;5034468;28;19920;-57
2022/06/24 13:51:30;;;;;;;;;;;29.30;72.10;;;;;;5028388;28;20013;-51
2022/06/24 13:54:14;;;;;;;;;;;29.60;71.20;;;;;;5031979;28;19916;-54
2022/06/24 13:56:58;;;;;;;;;;;29.70;71.20;;;;;;5018040;28;20312;-53
2022/06/24 13:59:43;;;;;;;;;;;29.70;71.40;;;;;;5033683;28;19980;-50
2022/06/24 14:02:27;;;;;;;;;;;29.70;71.40;;;;;;5033288;28;19932;-50
2022/06/24 14:05:11;;;;;;;;;;;30.10;71.10;;;;;;5033589;28;20434;-54
2022/06/24 14:07:55;;;;;;;;;;;30.20;69.90;;;;;;5033559;28;19998;-53
2022/06/24 14:10:40;;;;;;;;;;;29.80;70.70;;;;;;5033129;28;19947;-54
2022/06/24 14:13:24;;;;;;;;;;;29.80;71.50;;;;;;5013893;28;19951;-52
2022/06/24 14:16:08;;;;;;;;;;;29.90;71.70;;;;;;5033081;28;19912;-55
2022/06/24 14:18:52;;;;;;;;;;;29.80;71.10;;;;;;5033426;28;19920;-55
2022/06/24 14:21:37;;;;;;;;;;;29.80;71.30;;;;;;5033992;28;20371;-52
2022/06/24 14:24:33;;;;;;;;;;;29.90;71.10;;;;;;5033395;28;19923;-54
2022/06/24 14:27:18;;;;;;;;;;;29.90;70.60;;;;;;5034760;28;19923;-55
2022/06/24 14:30:03;;;;;;;;;;;30.10;70.40;;;;;;5039433;28;19996;-53
2022/06/24 14:32:47;;;;;;;;;;;30.30;70.40;;;;;;5035922;28;19917;-55
2022/06/24 14:35:32;;;;;;;;;;;30.60;70.10;;;;;;5043200;28;19939;-54
2022/06/24 14:41:19;;;;;;;;;;;30.40;70.20;;;;;;5039442;28;20016;-54
2022/06/24 14:44:03;;;;;;;;;;;30.40;70.20;;;;;;5026446;28;20272;-55
2022/06/24 14:46:48;;;;;;;;;;;30.50;69.30;;;;;;5026914;28;20339;-56
2022/06/24 14:49:32;;;;;;;;;;;30.70;69.40;;;;;;5035658;28;19999;-52
2022/06/24 14:52:17;;;;;;;;;;;30.90;68.60;;;;;;5053611;28;19995;-55
2022/06/24 14:55:04;;;;;;;;;;;31.00;67.80;;;;;;5056465;28;20284;-51
2022/06/24 14:57:49;;;;;;;;;;;31.10;67.50;;;;;;5038885;28;19955;-55
2022/06/24 15:00:34;;;;;;;;;;;31.20;67.00;;;;;;5038434;28;19993;-55
2022/06/24 15:03:18;;;;;;;;;;;31.10;66.30;;;;;;5039722;28;20007;-53
2022/06/24 15:06:03;;;;;;;;;;;30.90;66.60;;;;;;5038516;28;20012;-54
2022/06/24 15:08:47;;;;;;;;;;;31.10;66.50;;;;;;5038977;28;19916;-54
2022/06/24 15:11:31;;;;;;;;;;;31.20;65.50;;;;;;5038890;28;19929;-54
2022/06/24 15:14:15;;;;;;;;;;;31.00;65.70;;;;;;5019345;28;20323;-50
2022/06/24 15:16:59;;;;;;;;;;;30.60;66.30;;;;;;5032407;28;19935;-54
2022/06/24 15:19:44;;;;;;;;;;;29.90;67.40;;;;;;5038422;28;19955;-51
2022/06/24 15:22:28;;;;;;;;;;;29.40;68.80;;;;;;5038380;28;19912;-51
2022/06/24 15:25:13;;;;;;;;;;;29.00;70.40;;;;;;5038795;28;19979;-54
2022/06/24 15:27:57;;;;;;;;;;;28.80;71.10;;;;;;5039749;28;19976;-55
2022/06/24 15:30:41;;;;;;;;;;;28.60;71.90;;;;;;5023559;28;19984;-54
2022/06/24 15:33:25;;;;;;;;;;;28.40;72.50;;;;;;5026538;28;19940;-53
2022/06/24 15:36:10;;;;;;;;;;;28.10;72.60;;;;;;5039653;28;20319;-53
2022/06/24 15:38:54;;;;;;;;;;;28.00;73.00;;;;;;5036861;28;19924;-54
2022/06/24 15:41:38;;;;;;;;;;;28.00;72.90;;;;;;5021970;28;19990;-53
2022/06/24 15:44:23;;;;;;;;;;;27.90;72.80;;;;;;5030563;28;19935;-56
2022/06/24 15:47:07;;;;;;;;;;;27.80;73.00;;;;;;5035071;28;20470;-54
2022/06/24 15:49:51;;;;;;;;;;;27.70;72.90;;;;;;5035147;28;19936;-53
2022/06/24 15:52:35;;;;;;;;;;;27.80;73.00;;;;;;5035459;28;19936;-54
2022/06/24 15:55:20;;;;;;;;;;;27.80;72.90;;;;;;5035279;28;19920;-53
2022/06/24 15:58:04;;;;;;;;;;;27.80;72.10;;;;;;5035056;28;19924;-53
2022/06/24 16:00:50;;;;;;;;;;;27.70;72.00;;;;;;5032928;28;20371;-51
2022/06/24 16:03:34;;;;;;;;;;;27.70;72.10;;;;;;5035096;28;19916;-53
2022/06/24 16:06:18;;;;;;;;;;;27.60;72.20;;;;;;5034773;28;19920;-55
2022/06/24 16:09:02;;;;;;;;;;;27.50;72.60;;;;;;5034267;28;19932;-54
2022/06/24 16:14:50;;;;;;;;;;;27.60;73.10;;;;;;5035083;28;19951;-55
2022/06/24 16:17:35;;;;;;;;;;;27.50;73.20;;;;;;5027782;28;19920;-53
2022/06/24 16:20:21;;;;;;;;;;;27.60;73.10;;;;;;5035248;28;20475;-55
2022/06/24 16:23:06;;;;;;;;;;;27.70;73.00;;;;;;5020442;28;19931;-51